createdAt,value
2023-10-29T00:01:29.654Z,0.00
2023-10-29T00:03:57.312Z,0.00
2023-10-29T00:06:24.251Z,0.00
2023-10-29T00:08:50.947Z,0.00
2023-10-29T00:11:17.603Z,0.00
2023-10-29T00:13:44.452Z,0.00
2023-10-29T00:16:12.406Z,2.28
2023-10-29T00:18:39.599Z,0.00
2023-10-29T00:21:06.656Z,0.00
2023-10-29T00:23:34.477Z,0.00
2023-10-29T00:26:01.459Z,0.00
2023-10-29T00:28:28.632Z,0.00
2023-10-29T00:30:56.596Z,0.13
2023-10-29T00:33:24.442Z,0.00
2023-10-29T00:35:52.014Z,0.00
2023-10-29T00:38:18.875Z,0.00
2023-10-29T00:40:45.943Z,0.00
2023-10-29T00:43:16.503Z,0.00
2023-10-29T00:45:45.493Z,0.00
2023-10-29T00:48:12.952Z,0.00
2023-10-29T00:50:41.088Z,0.00
2023-10-29T00:53:08.125Z,0.00
2023-10-29T00:55:36.344Z,0.00
2023-10-29T00:58:04.340Z,0.00
2023-10-29T01:00:31.162Z,0.00
2023-10-29T01:02:58.566Z,0.00
2023-10-29T01:05:25.452Z,0.00
2023-10-29T01:07:52.514Z,0.00
2023-10-29T01:10:19.285Z,0.00
2023-10-29T01:12:46.616Z,0.00
2023-10-29T01:15:13.491Z,0.00
2023-10-29T01:17:40.596Z,0.10
2023-10-29T01:20:07.917Z,0.00
2023-10-29T01:22:35.129Z,0.00
2023-10-29T01:25:06.702Z,0.00
2023-10-29T01:27:34.896Z,0.00
2023-10-29T01:30:01.615Z,0.00
2023-10-29T01:32:28.304Z,0.00
2023-10-29T01:34:55.045Z,0.00
2023-10-29T01:37:21.748Z,0.00
2023-10-29T01:39:48.430Z,0.00
2023-10-29T01:42:15.202Z,0.73
2023-10-29T01:44:41.936Z,0.10
2023-10-29T01:47:08.849Z,0.50
2023-10-29T01:49:35.500Z,0.00
2023-10-29T01:52:02.117Z,0.00
2023-10-29T01:54:28.756Z,0.00
2023-10-29T01:56:55.460Z,0.00
2023-10-29T01:59:22.233Z,0.00
2023-10-29T02:03:07.446Z,0.00
2023-10-29T02:05:34.332Z,0.00
2023-10-29T02:08:01.042Z,0.00
2023-10-29T02:10:27.955Z,0.00
2023-10-29T02:12:54.668Z,0.00
2023-10-29T02:15:21.426Z,0.00
2023-10-29T02:17:48.068Z,0.00
2023-10-29T02:20:14.795Z,0.00
2023-10-29T02:22:41.664Z,0.00
2023-10-29T02:25:08.888Z,0.00
2023-10-29T02:27:35.525Z,0.00
2023-10-29T02:30:02.204Z,0.00
2023-10-29T02:32:28.948Z,0.00
2023-10-29T02:34:56.815Z,0.00
2023-10-29T02:37:23.444Z,0.00
2023-10-29T02:39:50.134Z,0.00
2023-10-29T02:42:18.369Z,0.00
2023-10-29T02:44:45.498Z,0.00
2023-10-29T02:47:12.469Z,0.00
2023-10-29T02:49:39.318Z,0.00
2023-10-29T02:52:06.090Z,0.00
2023-10-29T02:54:34.693Z,0.00
2023-10-29T02:57:03.994Z,0.00
2023-10-29T02:59:30.852Z,0.00
2023-10-29T03:01:57.617Z,0.00
2023-10-29T03:04:24.749Z,0.00
2023-10-29T03:06:51.493Z,0.00
2023-10-29T03:09:18.200Z,0.00
2023-10-29T03:11:44.938Z,0.00
2023-10-29T03:14:11.597Z,0.00
2023-10-29T03:16:38.289Z,0.00
2023-10-29T03:19:05.371Z,0.00
2023-10-29T03:21:32.209Z,0.13
2023-10-29T03:23:58.982Z,0.00
2023-10-29T03:26:26.058Z,0.00
2023-10-29T03:28:52.785Z,0.00
2023-10-29T03:31:20.528Z,0.00
2023-10-29T03:33:47.987Z,0.00
2023-10-29T03:36:14.827Z,0.00
2023-10-29T03:38:42.093Z,0.00
2023-10-29T03:41:20.321Z,0.00
2023-10-29T03:43:47.032Z,0.00
2023-10-29T03:46:13.870Z,0.00
2023-10-29T03:48:45.769Z,0.00
2023-10-29T03:51:14.015Z,0.00
2023-10-29T03:53:41.464Z,0.00
2023-10-29T03:56:09.288Z,0.00
2023-10-29T03:58:36.437Z,0.00
2023-10-29T04:01:03.453Z,0.00
2023-10-29T04:03:30.476Z,0.00
2023-10-29T04:05:57.926Z,0.00
2023-10-29T04:08:24.782Z,0.00
2023-10-29T04:10:51.428Z,0.00
2023-10-29T04:13:18.637Z,0.00
2023-10-29T04:15:45.269Z,0.00
2023-10-29T04:18:11.978Z,0.00
2023-10-29T04:20:38.800Z,0.00
2023-10-29T04:23:05.470Z,0.00
2023-10-29T04:25:32.062Z,0.00
2023-10-29T04:27:58.916Z,0.00
2023-10-29T04:30:25.815Z,0.00
2023-10-29T04:32:52.495Z,0.00
2023-10-29T04:35:19.541Z,0.00
2023-10-29T04:37:46.237Z,0.00
2023-10-29T04:40:12.945Z,0.05
2023-10-29T04:42:39.571Z,0.28
2023-10-29T04:45:07.171Z,0.00
2023-10-29T04:47:34.045Z,0.00
2023-10-29T04:50:00.842Z,0.00
2023-10-29T04:52:27.693Z,0.00
2023-10-29T04:54:54.380Z,0.00
2023-10-29T04:57:22.446Z,0.00
2023-10-29T04:59:49.808Z,0.00
2023-10-29T05:02:17.717Z,0.00
2023-10-29T05:04:44.338Z,0.00
2023-10-29T05:07:10.979Z,0.00
2023-10-29T05:09:37.647Z,0.00
2023-10-29T05:12:04.892Z,0.00
2023-10-29T05:14:31.706Z,0.00
2023-10-29T05:16:59.087Z,0.00
2023-10-29T05:19:26.038Z,0.00
2023-10-29T05:21:52.863Z,0.00
2023-10-29T05:24:19.595Z,0.00
2023-10-29T05:26:46.307Z,0.00
2023-10-29T05:29:13.069Z,0.00
2023-10-29T05:31:39.804Z,0.00
2023-10-29T05:34:06.564Z,0.00
2023-10-29T05:36:33.462Z,0.00
2023-10-29T05:39:00.166Z,0.00
2023-10-29T05:41:27.023Z,0.00
2023-10-29T05:43:53.639Z,0.00
2023-10-29T05:46:23.470Z,0.00
2023-10-29T05:48:51.781Z,0.00
2023-10-29T05:51:20.118Z,0.00
2023-10-29T05:53:48.598Z,0.00
2023-10-29T05:56:15.352Z,0.00
2023-10-29T05:58:42.065Z,0.00
2023-10-29T06:01:08.854Z,0.00
2023-10-29T06:03:36.018Z,0.00
2023-10-29T06:06:03.225Z,0.00
2023-10-29T06:08:29.920Z,0.00
2023-10-29T06:10:56.644Z,0.00
2023-10-29T06:13:23.284Z,0.00
2023-10-29T06:15:50.018Z,0.00
2023-10-29T06:18:19.902Z,0.00
2023-10-29T06:20:46.810Z,0.00
2023-10-29T06:23:13.601Z,0.00
2023-10-29T06:25:40.252Z,0.00
2023-10-29T06:28:08.543Z,0.00
2023-10-29T06:30:35.234Z,0.00
2023-10-29T06:33:02.381Z,0.00
2023-10-29T06:35:29.371Z,0.00
2023-10-29T06:37:56.189Z,0.00
2023-10-29T06:40:22.952Z,0.00
2023-10-29T06:42:49.639Z,0.00
2023-10-29T06:45:17.899Z,0.00
2023-10-29T06:47:44.751Z,0.00
2023-10-29T06:50:11.812Z,0.00
2023-10-29T06:52:38.578Z,0.00
2023-10-29T06:55:05.986Z,0.00
2023-10-29T06:57:32.683Z,0.00
2023-10-29T07:00:00.842Z,0.00
2023-10-29T07:02:28.208Z,0.00
2023-10-29T07:04:54.998Z,0.00
2023-10-29T07:07:22.981Z,0.00
2023-10-29T07:09:49.669Z,0.00
2023-10-29T07:12:17.904Z,0.00
2023-10-29T07:14:45.158Z,0.00
2023-10-29T07:17:11.879Z,0.00
2023-10-29T07:19:39.615Z,0.00
2023-10-29T07:22:06.612Z,0.00
2023-10-29T07:24:36.166Z,0.00
2023-10-29T07:27:03.645Z,0.00
2023-10-29T07:29:30.446Z,0.00
2023-10-29T07:31:57.483Z,0.00
2023-10-29T07:34:24.268Z,0.00
2023-10-29T07:36:52.153Z,0.00
2023-10-29T07:39:18.917Z,0.00
2023-10-29T07:41:45.605Z,0.00
2023-10-29T07:44:13.855Z,0.00
2023-10-29T07:46:40.543Z,0.00
2023-10-29T07:49:07.199Z,0.00
2023-10-29T07:51:33.925Z,0.00
2023-10-29T07:54:01.171Z,0.00
2023-10-29T07:56:28.223Z,0.10
2023-10-29T07:58:55.064Z,0.00
2023-10-29T08:01:21.845Z,0.00
2023-10-29T08:03:49.832Z,0.00
2023-10-29T08:06:16.902Z,0.00
2023-10-29T08:08:43.964Z,0.00
2023-10-29T08:11:23.136Z,0.00
2023-10-29T08:13:51.375Z,0.00
2023-10-29T08:16:19.815Z,0.00
2023-10-29T08:18:46.799Z,0.00
2023-10-29T08:21:13.660Z,0.00
2023-10-29T08:23:40.439Z,0.00
2023-10-29T08:26:07.206Z,0.00
2023-10-29T08:28:36.612Z,0.00
2023-10-29T08:31:03.526Z,0.00
2023-10-29T08:33:30.585Z,0.00
2023-10-29T08:35:57.379Z,0.00
2023-10-29T08:38:24.152Z,0.00
2023-10-29T08:40:50.783Z,0.00
2023-10-29T08:43:17.534Z,0.17
2023-10-29T08:45:44.827Z,0.00
2023-10-29T08:48:11.808Z,0.00
2023-10-29T08:50:39.676Z,0.00
2023-10-29T08:53:06.404Z,0.00
2023-10-29T08:55:36.649Z,0.00
2023-10-29T08:58:03.342Z,0.00
2023-10-29T09:00:38.283Z,0.00
2023-10-29T09:03:16.030Z,0.00
2023-10-29T09:05:43.981Z,0.00
2023-10-29T09:08:11.196Z,0.00
2023-10-29T09:10:43.316Z,0.00
2023-10-29T09:13:11.087Z,0.00
2023-10-29T09:15:37.966Z,0.00
2023-10-29T09:18:05.004Z,0.00
2023-10-29T09:20:32.950Z,0.00
2023-10-29T09:22:59.647Z,0.00
2023-10-29T09:25:26.334Z,0.00
2023-10-29T09:27:54.247Z,0.00
2023-10-29T09:30:21.054Z,0.00
2023-10-29T09:32:48.036Z,0.00
2023-10-29T09:35:14.826Z,0.00
2023-10-29T09:37:41.479Z,0.00
2023-10-29T09:40:10.492Z,0.00
2023-10-29T09:42:44.924Z,0.00
2023-10-29T09:45:13.477Z,0.00
2023-10-29T09:47:40.233Z,0.00
2023-10-29T09:50:09.458Z,0.00
2023-10-29T09:52:37.253Z,0.00
2023-10-29T09:55:08.446Z,0.00
2023-10-29T09:57:35.365Z,0.00
2023-10-29T10:00:03.613Z,0.00
2023-10-29T10:02:57.404Z,0.00
2023-10-29T10:05:27.121Z,0.00
2023-10-29T10:07:53.807Z,0.00
2023-10-29T10:10:22.151Z,0.00
2023-10-29T10:12:51.354Z,0.13
2023-10-29T10:15:20.062Z,0.32
2023-10-29T10:17:58.800Z,0.63
2023-10-29T10:20:26.205Z,0.73
2023-10-29T10:23:00.693Z,0.82
2023-10-29T10:25:28.609Z,0.87
2023-10-29T10:27:58.523Z,0.70
2023-10-29T10:30:32.241Z,0.88
2023-10-29T10:33:21.959Z,0.70
2023-10-29T10:35:52.884Z,0.82
2023-10-29T10:38:21.031Z,0.60
2023-10-29T10:40:56.370Z,0.70
2023-10-29T10:43:23.971Z,0.70
2023-10-29T10:45:52.048Z,0.82
2023-10-29T10:48:19.636Z,0.63
2023-10-29T10:50:47.158Z,0.80
2023-10-29T10:53:17.389Z,0.65
2023-10-29T10:55:55.499Z,0.60
2023-10-29T10:58:30.628Z,0.50
2023-10-29T11:00:57.929Z,0.40
2023-10-29T11:03:32.233Z,0.35
2023-10-29T11:08:27.716Z,0.82
2023-10-29T11:10:55.053Z,1.02
2023-10-29T11:13:22.247Z,0.60
2023-10-29T11:15:50.463Z,0.85
2023-10-29T11:18:33.401Z,0.57
2023-10-29T11:21:01.258Z,0.85
2023-10-29T11:23:33.046Z,0.73
2023-10-29T11:26:24.431Z,0.50
2023-10-29T11:28:53.984Z,0.50
2023-10-29T11:31:26.300Z,0.70
2023-10-29T11:33:56.213Z,0.38
2023-10-29T11:36:35.967Z,0.30
2023-10-29T11:39:19.267Z,0.55
2023-10-29T11:41:46.716Z,0.50
2023-10-29T11:44:22.500Z,0.50
2023-10-29T11:47:04.289Z,0.77
2023-10-29T11:49:57.349Z,0.68
2023-10-29T11:52:28.592Z,0.40
2023-10-29T11:55:03.448Z,0.50
2023-10-29T11:57:31.279Z,0.75
2023-10-29T11:59:59.658Z,0.80
2023-10-29T12:02:26.804Z,0.35
2023-10-29T12:04:53.625Z,0.60
2023-10-29T12:07:28.100Z,0.50
2023-10-29T12:10:08.518Z,0.55
2023-10-29T12:12:36.435Z,0.40
2023-10-29T12:15:04.117Z,0.57
2023-10-29T12:17:30.900Z,0.45
2023-10-29T12:19:57.690Z,0.68
2023-10-29T12:22:28.929Z,0.57
2023-10-29T12:25:02.171Z,0.32
2023-10-29T12:27:31.228Z,0.73
2023-10-29T12:29:58.179Z,0.43
2023-10-29T12:32:27.134Z,0.80
2023-10-29T12:34:56.043Z,0.47
2023-10-29T12:37:31.524Z,0.50
2023-10-29T12:40:01.298Z,0.80
2023-10-29T12:42:53.811Z,0.50
2023-10-29T12:45:28.492Z,0.63
2023-10-29T12:48:15.953Z,0.60
2023-10-29T12:50:51.121Z,0.93
2023-10-29T12:53:32.029Z,0.70
2023-10-29T12:56:00.855Z,0.50
2023-10-29T12:58:29.641Z,1.02
2023-10-29T13:01:01.343Z,0.82
2023-10-29T13:03:28.751Z,0.40
2023-10-29T13:05:56.183Z,0.40
2023-10-29T13:08:25.806Z,0.77
2023-10-29T13:10:53.568Z,0.40
2023-10-29T13:13:24.267Z,0.75
2023-10-29T13:15:51.267Z,0.65
2023-10-29T13:18:19.799Z,0.63
2023-10-29T13:20:46.624Z,0.50
2023-10-29T13:23:13.382Z,1.23
2023-10-29T13:25:40.091Z,0.40
2023-10-29T13:28:06.744Z,0.75
2023-10-29T13:30:33.493Z,0.60
2023-10-29T13:33:00.378Z,0.70
2023-10-29T13:35:27.266Z,0.50
2023-10-29T13:37:54.264Z,0.57
2023-10-29T13:40:23.396Z,0.60
2023-10-29T13:42:50.423Z,0.80
2023-10-29T13:45:17.100Z,0.55
2023-10-29T13:47:44.121Z,0.50
2023-10-29T13:50:10.958Z,0.43
2023-10-29T13:52:37.678Z,0.50
2023-10-29T13:55:05.549Z,0.82
2023-10-29T13:57:32.361Z,0.40
2023-10-29T13:59:59.105Z,0.43
2023-10-29T14:02:26.597Z,0.45
2023-10-29T14:04:53.340Z,0.57
2023-10-29T14:07:20.022Z,0.50
2023-10-29T14:09:46.896Z,0.30
2023-10-29T14:12:13.607Z,0.60
2023-10-29T14:14:40.310Z,0.50
2023-10-29T14:17:07.929Z,0.30
2023-10-29T14:19:36.293Z,0.30
2023-10-29T14:22:03.398Z,0.30
2023-10-29T14:24:31.171Z,0.68
2023-10-29T14:26:59.668Z,0.50
2023-10-29T14:29:26.956Z,0.50
2023-10-29T14:31:55.030Z,0.40
2023-10-29T14:34:22.135Z,0.40
2023-10-29T14:36:48.844Z,0.52
2023-10-29T14:39:15.619Z,0.40
2023-10-29T14:41:42.541Z,0.65
2023-10-29T14:44:10.710Z,0.20
2023-10-29T14:46:38.160Z,0.45
2023-10-29T14:49:05.137Z,0.32
2023-10-29T14:51:31.786Z,0.40
2023-10-29T14:53:59.507Z,0.40
2023-10-29T14:56:26.267Z,0.35
2023-10-29T14:58:52.968Z,0.30
2023-10-29T15:01:21.231Z,0.20
2023-10-29T15:03:49.011Z,0.43
2023-10-29T15:06:16.292Z,0.28
2023-10-29T15:08:43.096Z,0.50
2023-10-29T15:11:10.414Z,0.40
2023-10-29T15:13:45.897Z,0.15
2023-10-29T15:16:14.744Z,0.45
2023-10-29T15:18:41.566Z,0.50
2023-10-29T15:21:17.444Z,0.50
2023-10-29T15:23:44.167Z,0.30
2023-10-29T15:26:16.002Z,0.30
2023-10-29T15:28:42.753Z,0.50
2023-10-29T15:31:10.693Z,0.50
2023-10-29T15:33:37.598Z,0.20
2023-10-29T15:36:09.908Z,0.28
2023-10-29T15:38:40.770Z,0.28
2023-10-29T15:41:07.979Z,0.35
2023-10-29T15:43:35.553Z,0.38
2023-10-29T15:46:06.599Z,0.30
2023-10-29T15:48:33.616Z,0.38
2023-10-29T15:51:01.991Z,0.22
2023-10-29T15:53:28.870Z,0.50
2023-10-29T15:55:58.661Z,0.45
2023-10-29T15:58:26.076Z,0.17
2023-10-29T16:00:52.762Z,0.40
2023-10-29T16:03:19.567Z,0.52
2023-10-29T16:05:46.285Z,0.55
2023-10-29T16:08:12.908Z,0.98
2023-10-29T16:10:39.675Z,0.90
2023-10-29T16:13:06.448Z,0.50
2023-10-29T16:15:33.242Z,0.45
2023-10-29T16:18:00.438Z,0.30
2023-10-29T16:20:27.230Z,0.50
2023-10-29T16:22:53.924Z,0.52
2023-10-29T16:25:20.698Z,0.60
2023-10-29T16:27:47.544Z,0.85
2023-10-29T16:30:14.330Z,0.50
2023-10-29T16:32:41.232Z,0.47
2023-10-29T16:35:08.663Z,0.60
2023-10-29T16:37:35.859Z,0.52
2023-10-29T16:40:02.513Z,0.50
2023-10-29T16:42:29.167Z,0.45
2023-10-29T16:44:55.839Z,0.65
2023-10-29T16:47:22.688Z,0.47
2023-10-29T16:49:51.072Z,0.50
2023-10-29T16:52:17.813Z,0.52
2023-10-29T16:54:46.489Z,0.40
2023-10-29T16:57:13.687Z,0.40
2023-10-29T16:59:41.336Z,0.45
2023-10-29T17:02:08.312Z,0.60
2023-10-29T17:04:35.598Z,0.75
2023-10-29T17:07:05.037Z,0.43
2023-10-29T17:09:34.102Z,0.60
2023-10-29T17:12:00.836Z,0.40
2023-10-29T17:14:28.484Z,0.90
2023-10-29T17:16:55.197Z,0.65
2023-10-29T17:19:21.885Z,0.60
2023-10-29T17:21:48.749Z,0.60
2023-10-29T17:24:15.485Z,0.60
2023-10-29T17:26:42.422Z,1.63
2023-10-29T17:29:09.415Z,1.77
2023-10-29T17:31:36.177Z,0.50
2023-10-29T17:34:03.074Z,0.65
2023-10-29T17:36:29.834Z,1.27
2023-10-29T17:38:56.623Z,0.70
2023-10-29T17:41:23.547Z,0.50
2023-10-29T17:43:50.545Z,0.75
2023-10-29T17:46:22.704Z,0.85
2023-10-29T17:48:53.165Z,0.88
2023-10-29T17:51:20.277Z,0.50
2023-10-29T17:53:47.985Z,0.60
2023-10-29T17:56:16.829Z,0.52
2023-10-29T17:58:44.694Z,0.63
2023-10-29T18:01:11.590Z,0.77
2023-10-29T18:03:38.589Z,0.30
2023-10-29T18:06:16.616Z,0.52
2023-10-29T18:08:44.663Z,1.15
2023-10-29T18:11:12.633Z,0.47
2023-10-29T18:13:40.303Z,0.50
2023-10-29T18:16:09.287Z,0.80
2023-10-29T18:18:37.145Z,0.65
2023-10-29T18:21:05.031Z,0.55
2023-10-29T18:23:31.836Z,0.65
2023-10-29T18:25:59.244Z,0.50
2023-10-29T18:28:25.966Z,1.88
2023-10-29T18:30:52.871Z,0.70
2023-10-29T18:33:19.711Z,0.77
2023-10-29T18:35:46.760Z,0.68
2023-10-29T18:38:14.011Z,0.70
2023-10-29T18:40:41.093Z,0.70
2023-10-29T18:43:07.887Z,0.73
2023-10-29T18:45:39.742Z,0.43
2023-10-29T18:48:06.519Z,1.23
2023-10-29T18:50:34.655Z,0.57
2023-10-29T18:53:01.633Z,0.50
2023-10-29T18:55:28.440Z,0.60
2023-10-29T18:57:55.169Z,0.80
2023-10-29T19:00:21.925Z,0.85
2023-10-29T19:02:48.796Z,0.65
2023-10-29T19:05:17.284Z,0.85
2023-10-29T19:07:44.242Z,1.50
2023-10-29T19:10:11.948Z,0.60
2023-10-29T19:12:38.850Z,0.73
2023-10-29T19:15:06.489Z,0.70
2023-10-29T19:17:33.905Z,0.75
2023-10-29T19:20:01.812Z,1.00
2023-10-29T19:22:28.592Z,1.52
2023-10-29T19:24:55.514Z,0.80
2023-10-29T19:27:22.791Z,0.90
2023-10-29T19:29:53.343Z,1.83
2023-10-29T19:32:20.020Z,1.15
2023-10-29T19:34:47.135Z,0.80
2023-10-29T19:37:15.058Z,0.60
2023-10-29T19:39:41.847Z,0.60
2023-10-29T19:42:09.697Z,0.80
2023-10-29T19:44:37.773Z,0.93
2023-10-29T19:47:04.737Z,0.82
2023-10-29T19:49:31.429Z,0.60
2023-10-29T19:51:58.191Z,0.70
2023-10-29T19:54:25.473Z,0.75
2023-10-29T19:56:52.253Z,0.60
2023-10-29T19:59:19.082Z,0.75
2023-10-29T20:01:45.937Z,0.90
2023-10-29T20:04:12.843Z,0.65
2023-10-29T20:06:39.866Z,0.73
2023-10-29T20:09:06.698Z,1.70
2023-10-29T20:11:33.478Z,0.80
2023-10-29T20:14:00.651Z,0.80
2023-10-29T20:16:27.519Z,1.63
2023-10-29T20:18:57.198Z,1.13
2023-10-29T20:21:25.346Z,0.77
2023-10-29T20:23:52.624Z,1.38
2023-10-29T20:26:20.722Z,1.20
2023-10-29T20:28:50.301Z,1.50
2023-10-29T20:31:20.839Z,1.45
2023-10-29T20:33:47.960Z,1.40
2023-10-29T20:36:22.582Z,1.83
2023-10-29T20:38:49.284Z,0.80
2023-10-29T20:41:16.016Z,1.50
2023-10-29T20:43:42.830Z,1.20
2023-10-29T20:46:10.509Z,1.27
2023-10-29T20:48:37.987Z,1.10
2023-10-29T20:51:05.336Z,1.10
2023-10-29T20:53:33.073Z,1.15
2023-10-29T20:56:05.382Z,1.05
2023-10-29T20:58:32.231Z,1.77
2023-10-29T21:00:58.911Z,1.60
2023-10-29T21:03:25.662Z,0.98
2023-10-29T21:05:59.656Z,0.93
2023-10-29T21:08:27.115Z,0.90
2023-10-29T21:11:14.713Z,1.65
2023-10-29T21:13:44.906Z,1.05
2023-10-29T21:16:11.630Z,1.25
2023-10-29T21:18:38.393Z,1.10
2023-10-29T21:21:05.908Z,1.90
2023-10-29T21:23:33.021Z,1.20
2023-10-29T21:25:59.817Z,1.75
2023-10-29T21:28:26.793Z,1.65
2023-10-29T21:30:53.528Z,1.38
2023-10-29T21:33:20.297Z,2.05
2023-10-29T21:35:48.291Z,1.50
2023-10-29T21:38:16.289Z,1.10
2023-10-29T21:40:43.051Z,1.45
2023-10-29T21:43:10.015Z,2.83
2023-10-29T21:45:41.664Z,1.23
2023-10-29T21:48:08.896Z,1.38
2023-10-29T21:50:35.763Z,1.20
2023-10-29T21:53:02.569Z,1.20
2023-10-29T21:55:30.206Z,1.38
2023-10-29T21:57:56.924Z,1.40
2023-10-29T22:00:23.719Z,1.23
2023-10-29T22:02:50.484Z,2.22
2023-10-29T22:05:17.216Z,2.55
2023-10-29T22:07:43.963Z,1.83
2023-10-29T22:10:10.840Z,0.85
2023-10-29T22:12:38.664Z,1.30
2023-10-29T22:15:06.216Z,1.00
2023-10-29T22:17:33.035Z,1.45
2023-10-29T22:19:59.723Z,1.35
2023-10-29T22:22:26.363Z,1.25
2023-10-29T22:24:53.047Z,2.47
2023-10-29T22:27:19.777Z,1.20
2023-10-29T22:29:46.672Z,1.38
2023-10-29T22:32:15.687Z,1.15
2023-10-29T22:34:42.397Z,2.08
2023-10-29T22:37:09.059Z,1.60
2023-10-29T22:39:35.919Z,1.30
2023-10-29T22:42:03.807Z,1.00
2023-10-29T22:44:30.559Z,1.42
2023-10-29T22:46:57.881Z,1.05
2023-10-29T22:49:24.761Z,1.35
2023-10-29T22:51:51.489Z,1.15
2023-10-29T22:54:18.821Z,2.20
2023-10-29T22:56:45.602Z,1.70
2023-10-29T22:59:12.469Z,1.35
2023-10-29T23:01:39.304Z,1.38
2023-10-29T23:04:06.668Z,0.90
2023-10-29T23:06:33.510Z,1.02
2023-10-29T23:09:00.189Z,1.48
2023-10-29T23:11:26.886Z,1.48
2023-10-29T23:13:54.297Z,2.30
2023-10-29T23:16:21.018Z,1.83
2023-10-29T23:18:48.692Z,1.70
2023-10-29T23:21:15.417Z,1.60
2023-10-29T23:23:42.127Z,0.90
2023-10-29T23:26:08.826Z,2.15
2023-10-29T23:28:38.384Z,1.10
2023-10-29T23:31:06.853Z,2.00
2023-10-29T23:33:33.632Z,1.77
2023-10-29T23:36:00.372Z,1.30
2023-10-29T23:38:26.993Z,1.30
2023-10-29T23:40:53.722Z,1.65
2023-10-29T23:43:20.375Z,0.90
2023-10-29T23:45:47.070Z,1.90
2023-10-29T23:48:14.547Z,1.10
2023-10-29T23:50:41.513Z,3.15
2023-10-29T23:53:08.267Z,2.33
2023-10-29T23:55:35.095Z,2.10
2023-10-29T23:58:01.777Z,1.83
